Rheinfels — V2AI4 — position and weather

sailwx.info

Track history (hours):
 
Tides and Currents Weather Stations Pressure Air Temp Water Temp Dewpoint Dewpoint Depression Visibility Wind Speed Wind Dir Waves Ship Positions

Rheinfels

Last reported at 2015-Aug-23 02:33 UTC. Time now 2015-Sep-05 03:44 UTC.
Position N 51°34' W 010°23'.
Warning: this ship's position is 13 days out of date.

; draft 4.9 m.

Type: Cargo ship. MMSI: 304010767.

Date/timePositionNaut miles runAvg speedWind from/ knotsBaromVisibWave heightAir tempDewpointWater temp
2015-Aug-23 02:33N 51°34' W 010°23'9 8.8
2015-Aug-23 01:33N 51°30' W 010°10'9 8.8
2015-Aug-23 00:33N 51°27' W 009°57'9 8.7
2015-Aug-22 23:33N 51°23' W 009°45'8 8.0
2015-Aug-22 22:33N 51°21' W 009°32'9 8.7
2015-Aug-22 21:33N 51°22' W 009°18'9 8.9
2015-Aug-22 20:33N 51°22' W 009°04'9 9.3
2015-Aug-22 19:33N 51°23' W 008°49'9 9.1
2015-Aug-22 18:33N 51°24' W 008°35'9 9.1
2015-Aug-22 17:33N 51°24' W 008°20'9 9.2
2015-Aug-22 16:33N 51°25' W 008°05'9 9.3
2015-Aug-22 15:33N 51°25' W 007°50'175 8.6
2015-Aug-21 19:08N 51°27' W 003°09'0 0.1
2015-Aug-21 18:30N 51°27' W 003°10'0 0.0
2015-Aug-21 17:34N 51°27' W 003°10'0 0.0
2015-Aug-21 16:33N 51°27' W 003°10'0 0.0
2015-Aug-21 15:33N 51°27' W 003°10'0 0.0
2015-Aug-21 14:33N 51°27' W 003°10'0 0.0
2015-Aug-21 06:20N 51°27' W 003°10'0 0.0
2015-Aug-21 05:33N 51°27' W 003°10'0 0.0
2015-Aug-21 04:33N 51°27' W 003°10'0 0.0
2015-Aug-21 03:32N 51°27' W 003°10'0 0.0
2015-Aug-21 02:30N 51°27' W 003°10'0 0.0
2015-Aug-21 01:31N 51°27' W 003°10'0 0.0
2015-Aug-21 00:28N 51°27' W 003°10'0 0.0
2015-Aug-20 23:28N 51°27' W 003°10'0 0.0
2015-Aug-20 22:28N 51°27' W 003°10'0 0.0
2015-Aug-20 21:16N 51°27' W 003°10'0 0.0
2015-Aug-20 20:28N 51°27' W 003°10'0 0.0
2015-Aug-20 19:28N 51°27' W 003°10'0 0.0
2015-Aug-20 18:04N 51°27' W 003°10'0 0.0
2015-Aug-20 17:28N 51°27' W 003°10'0 0.0
2015-Aug-20 16:28N 51°27' W 003°10'0 0.0
2015-Aug-20 05:31N 51°27' W 003°10'0 0.0
2015-Aug-20 04:31N 51°27' W 003°10'0 0.0
2015-Aug-20 03:31N 51°27' W 003°10'0 0.0
2015-Aug-20 02:31N 51°27' W 003°10'0 0.0
2015-Aug-20 01:31N 51°27' W 003°10'89 5.5
2015-Aug-19 09:10N 50°43' W 005°13'710.8
2015-Aug-19 08:33N 50°39' W 005°21'1311.2
2015-Aug-19 07:26N 50°30' W 005°36'178 4.0
2015-Aug-17 11:06N 48°39' W 002°01'  
2015-Aug-14 08:31N 50°33' W 005°33'9 9.5
2015-Aug-14 07:33N 50°39' W 005°22'97 9.3
2015-Aug-13 21:06N 51°24' W 003°05'712.9
2015-Aug-13 20:33N 51°28' W 002°56'1211.4
2015-Aug-13 19:33N 51°35' W 002°41'8 8.3
2015-Aug-13 18:33N 51°41' W 002°32'3 2.8
2015-Aug-13 17:32N 51°43' W 002°29'0 0.2
2015-Aug-13 16:33N 51°43' W 002°29'0 0.0
2015-Aug-13 15:33N 51°43' W 002°29'0 0.0
2015-Aug-13 14:33N 51°43' W 002°29'0 0.0
2015-Aug-13 13:33N 51°43' W 002°29'0 0.0
2015-Aug-13 12:33N 51°43' W 002°29'0 0.0
2015-Aug-13 11:33N 51°43' W 002°29'0 0.0
2015-Aug-13 10:33N 51°43' W 002°29'0 0.0
2015-Aug-13 09:33N 51°43' W 002°29'0 0.0
2015-Aug-13 08:33N 51°43' W 002°29'0 0.0
2015-Aug-13 07:33N 51°43' W 002°29'0 0.0
2015-Aug-13 06:33N 51°43' W 002°29'0 0.0
2015-Aug-13 05:33N 51°43' W 002°29'0 0.0
2015-Aug-13 04:33N 51°43' W 002°29'0 0.0
2015-Aug-13 03:33N 51°43' W 002°29'  
Track history (hours):
 
Tides and Currents Weather Stations Pressure Air Temp Water Temp Dewpoint Dewpoint Depression Visibility Wind Speed Wind Dir Waves Ship Positions

Rheinfels

Last reported at 2015-Aug-23 02:33 UTC. Time now 2015-Sep-05 03:44 UTC.
Position N 51°34' W 010°23'.
Warning: this ship's position is 13 days out of date.

; draft 4.9 m.

Type: Cargo ship. MMSI: 304010767.

Date/timePositionNaut miles runAvg speedWind from/ knotsBaromVisibWave heightAir tempDewpointWater temp
2015-Aug-23 02:33N 51°34' W 010°23'9 8.8
2015-Aug-23 01:33N 51°30' W 010°10'9 8.8
2015-Aug-23 00:33N 51°27' W 009°57'9 8.7
2015-Aug-22 23:33N 51°23' W 009°45'8 8.0
2015-Aug-22 22:33N 51°21' W 009°32'9 8.7
2015-Aug-22 21:33N 51°22' W 009°18'9 8.9
2015-Aug-22 20:33N 51°22' W 009°04'9 9.3
2015-Aug-22 19:33N 51°23' W 008°49'9 9.1
2015-Aug-22 18:33N 51°24' W 008°35'9 9.1
2015-Aug-22 17:33N 51°24' W 008°20'9 9.2
2015-Aug-22 16:33N 51°25' W 008°05'9 9.3
2015-Aug-22 15:33N 51°25' W 007°50'175 8.6
2015-Aug-21 19:08N 51°27' W 003°09'0 0.1
2015-Aug-21 18:30N 51°27' W 003°10'0 0.0
2015-Aug-21 17:34N 51°27' W 003°10'0 0.0
2015-Aug-21 16:33N 51°27' W 003°10'0 0.0
2015-Aug-21 15:33N 51°27' W 003°10'0 0.0
2015-Aug-21 14:33N 51°27' W 003°10'0 0.0
2015-Aug-21 06:20N 51°27' W 003°10'0 0.0
2015-Aug-21 05:33N 51°27' W 003°10'0 0.0
2015-Aug-21 04:33N 51°27' W 003°10'0 0.0
2015-Aug-21 03:32N 51°27' W 003°10'0 0.0
2015-Aug-21 02:30N 51°27' W 003°10'0 0.0
2015-Aug-21 01:31N 51°27' W 003°10'0 0.0
2015-Aug-21 00:28N 51°27' W 003°10'0 0.0
2015-Aug-20 23:28N 51°27' W 003°10'0 0.0
2015-Aug-20 22:28N 51°27' W 003°10'0 0.0
2015-Aug-20 21:16N 51°27' W 003°10'0 0.0
2015-Aug-20 20:28N 51°27' W 003°10'0 0.0
2015-Aug-20 19:28N 51°27' W 003°10'0 0.0
2015-Aug-20 18:04N 51°27' W 003°10'0 0.0
2015-Aug-20 17:28N 51°27' W 003°10'0 0.0
2015-Aug-20 16:28N 51°27' W 003°10'0 0.0
2015-Aug-20 05:31N 51°27' W 003°10'0 0.0
2015-Aug-20 04:31N 51°27' W 003°10'0 0.0
2015-Aug-20 03:31N 51°27' W 003°10'0 0.0
2015-Aug-20 02:31N 51°27' W 003°10'0 0.0
2015-Aug-20 01:31N 51°27' W 003°10'89 5.5
2015-Aug-19 09:10N 50°43' W 005°13'710.8
2015-Aug-19 08:33N 50°39' W 005°21'1311.2
2015-Aug-19 07:26N 50°30' W 005°36'178 4.0
2015-Aug-17 11:06N 48°39' W 002°01'  
2015-Aug-14 08:31N 50°33' W 005°33'9 9.5
2015-Aug-14 07:33N 50°39' W 005°22'97 9.3
2015-Aug-13 21:06N 51°24' W 003°05'712.9
2015-Aug-13 20:33N 51°28' W 002°56'1211.4
2015-Aug-13 19:33N 51°35' W 002°41'8 8.3
2015-Aug-13 18:33N 51°41' W 002°32'3 2.8
2015-Aug-13 17:32N 51°43' W 002°29'0 0.2
2015-Aug-13 16:33N 51°43' W 002°29'0 0.0
2015-Aug-13 15:33N 51°43' W 002°29'0 0.0
2015-Aug-13 14:33N 51°43' W 002°29'0 0.0
2015-Aug-13 13:33N 51°43' W 002°29'0 0.0
2015-Aug-13 12:33N 51°43' W 002°29'0 0.0
2015-Aug-13 11:33N 51°43' W 002°29'0 0.0
2015-Aug-13 10:33N 51°43' W 002°29'0 0.0
2015-Aug-13 09:33N 51°43' W 002°29'0 0.0
2015-Aug-13 08:33N 51°43' W 002°29'0 0.0
2015-Aug-13 07:33N 51°43' W 002°29'0 0.0
2015-Aug-13 06:33N 51°43' W 002°29'0 0.0
2015-Aug-13 05:33N 51°43' W 002°29'0 0.0
2015-Aug-13 04:33N 51°43' W 002°29'0 0.0
2015-Aug-13 03:33N 51°43' W 002°29'  

Dump ship's entire track history